This is the latest recevied weather packets stored in our database for station/object W0NKY-13. If no packets are shown the sender has not sent any weather packets the latest 10 day(s).
| Time | Temp. | Humidity | Pressure | Rain* | Wind** | Luminosity | Snow |
|---|---|---|---|---|---|---|---|
| 1777188318 | 12.22° C | 86% | 1016.8 hPa | 0 mm | - | 0 W/m² | - |
| 1777181719 | 15° C | 84% | 1015.9 hPa | 0 mm | - | 0 W/m² | - |
| 1777179916 | 15° C | 84% | 1015.6 hPa | 0 mm | - | 0 W/m² | - |
| 1777175117 | 15° C | 83% | 1015.1 hPa | 0 mm | - | 0 W/m² | - |
| 1777171518 | 12.78° C | 87% | 1014.5 hPa | 0 mm | - | 0 W/m² | - |
| 1777170918 | 12.78° C | 87% | 1014.5 hPa | 0 mm | - | 0 W/m² | - |
| 1777169718 | 13.33° C | 82% | 1014.4 hPa | 0 mm | - | 0 W/m² | - |
| 1777167339 | 16.11° C | 76% | 1014.1 hPa | 0 mm | - | 0 W/m² | - |
| 1777166116 | 16.67° C | 73% | 1013.9 hPa | 0 mm | - | 0 W/m² | - |
| 1777159538 | 20.56° C | 60% | 1012.6 hPa | 0 mm | - | 39 W/m² | - |
| 1777158918 | 21.11° C | 59% | 1012.6 hPa | 0 mm | - | 51 W/m² | - |
| 1777156519 | 22.78° C | 53% | 1012.3 hPa | 0 mm | - | 151 W/m² | - |
| 1777154119 | 22.78° C | 59% | 1012.4 hPa | 0 mm | - | 569 W/m² | - |
| 1777153519 | 23.89° C | 56% | 1012.4 hPa | 0 mm | - | 176 W/m² | - |
| 1777152919 | 24.44° C | 54% | 1012.4 hPa | 0 mm | - | 304 W/m² | - |
| 1777148720 | 24.44° C | 52% | 1012.6 hPa | 0 mm | - | 477 W/m² | - |
| 1777146321 | 24.44° C | 56% | 1012.9 hPa | 0 mm | - | 208 W/m² | - |
| 1777145718 | 24.44° C | 54% | 1013 hPa | 0 mm | - | 192 W/m² | - |
| 1777143918 | 25° C | 54% | 1013 hPa | 0 mm | - | 89 W/m² | - |
| 1777141519 | 24.44° C | 56% | 1013.3 hPa | 0 mm | - | 250 W/m² | - |
| 1777138519 | 23.33° C | 61% | 1013.7 hPa | 0 mm | - | 133 W/m² | - |
| 1777135517 | 21.67° C | 69% | 1014.2 hPa | 0 mm | - | 85 W/m² | - |
| 1777134917 | 22.22° C | 67% | 1014.2 hPa | 0 mm | - | 103 W/m² | - |
| 1777125919 | 17.78° C | 87% | 1013.8 hPa | 0 mm | - | 114 W/m² | - |
| 1777118118 | 13.89° C | 96% | 1013 hPa | 0 mm | - | 21 W/m² | - |
* Rain latest hour (hover to see other rain measurements)
** Current wind speed in m/s (hover to see current wind gust speed)